SBIL

Details ICAO SBIL (IOS)
Name Ilheus
Region Brazil
Timezone America/Bahia (UTC-3.0)
Plans Departing 66
Arriving 62
Stats Elevation 15 ft / 5 m (AMSL)
Location -14.815964° -39.033197°
Runways 1
Magnetic Variation 23.700° W
Sunrise 2018-05-21 08:52:48 UTC / 2018-05-21 05:52:48 Local
Sunset 2018-05-21 20:15:31 UTC / 2018-05-21 17:15:31 Local
Advertisement - Login to hide

Runways

ID Width Length Bearing (true) Bearing (mag) Surface Threshold Offset Overrun Length
11 148 ft / 45 m 5,127 ft / 1,563 m 88.35° 112.05° Asphalt 0 ft / 0 m 190 ft / 58 m
29 148 ft / 45 m 5,127 ft / 1,563 m 268.34° 292.04° Asphalt 0 ft / 0 m 160 ft / 49 m

Map

Weather


0- 5 10 15 20 25 30 35+ Temperature / ° C

Clouds and Precipitation
Forecast for 2018-05-21 06:00 UTC. Updated 2 hours ago

Ground ~20,000 ft ~40,000 ft Winds

METAR

SBIL 210700Z 26003KT 9999 SCT016 SCT030 BKN070 24/23 Q1013

TAF

TAF SBIL 210200Z 2106/2118 26004KT 8000 SCT012 BKN017 TN23/2107Z TX29/2116Z PROB30 TEMPO 2107/2110 4000 SHRA BKN012 FEW025TCU PROB40 TEMPO 2114/2116 4000 RA BKN012 FEW025TCU RMK PEI

Frequencies

Approach 120.10 MHz APP
Warning: Do not use this data for real-world aviation or navigation. No guarantee of current accuracy is given.